Time;durP1;ratioP1;P1;durP2;ratioP2;P2;SDS_P1;SDS_P2;PMS_P1;PMS_P2;Temp;Humidity;BMP_temperature;BMP_pressure;BME280_temperature;BME280_humidity;BME280_pressure;Samples;Min_cycle;Max_cycle;Signal;HPM_P1;HPM_P2
2024/01/11 00:00:46;;;;;;;2.10;0.80;;;;;;;1.87;73.70;101951.66;5041089;28;20053;-46
2024/01/11 00:03:13;;;;;;;2.88;0.68;;;;;;;1.90;74.56;101954.41;5038166;28;20078;-44
2024/01/11 00:05:41;;;;;;;4.78;1.38;;;;;;;1.91;75.25;101961.28;5043941;28;20059;-52
2024/01/11 00:08:08;;;;;;;0.90;0.40;;;;;;;1.90;75.24;101954.41;5040136;28;20049;-46
2024/01/11 00:10:36;;;;;;;5.53;1.15;;;;;;;1.92;75.02;101958.81;5040054;28;20073;-49
2024/01/11 00:13:04;;;;;;;2.08;1.13;;;;;;;1.94;75.43;101953.81;5039700;28;20501;-48
2024/01/11 00:15:30;;;;;;;3.42;0.75;;;;;;;1.95;74.96;101957.28;5041613;28;20051;-54
2024/01/11 00:17:57;;;;;;;4.78;1.00;;;;;;;1.95;74.81;101958.13;5043441;28;20107;-44
2024/01/11 00:20:24;;;;;;;2.30;0.73;;;;;;;1.95;75.09;101959.81;5031469;28;20052;-42
2024/01/11 00:22:51;;;;;;;3.70;0.95;;;;;;;1.97;73.97;101963.34;5030962;28;20072;-52
2024/01/11 00:25:17;;;;;;;2.35;1.00;;;;;;;1.96;74.49;101970.13;5036008;28;20152;-43
2024/01/11 00:27:44;;;;;;;0.90;0.60;;;;;;;1.98;74.00;101976.22;5037128;28;20045;-53
2024/01/11 00:30:11;;;;;;;3.65;0.73;;;;;;;1.98;75.17;101968.56;5035457;28;20045;-52
2024/01/11 00:32:38;;;;;;;5.25;0.77;;;;;;;2.00;74.85;101981.44;5041617;28;20072;-49
2024/01/11 00:35:05;;;;;;;1.92;0.70;;;;;;;2.02;74.59;101975.63;5041493;28;20057;-41
2024/01/11 00:37:32;;;;;;;5.78;1.20;;;;;;;2.02;74.24;101980.75;5041556;28;20056;-46
2024/01/11 00:39:58;;;;;;;7.43;1.25;;;;;;;2.03;75.07;101985.06;5059304;28;20063;-48
2024/01/11 00:42:26;;;;;;;4.22;1.02;;;;;;;2.04;74.81;101979.19;5047154;28;20131;-48
2024/01/11 00:44:53;;;;;;;4.45;0.60;;;;;;;2.02;75.17;101985.84;5046983;28;20049;-48
2024/01/11 00:47:20;;;;;;;4.45;0.50;;;;;;;2.03;75.01;101981.63;5051181;28;20049;-50
2024/01/11 00:49:49;;;;;;;2.08;0.52;;;;;;;2.03;75.19;101992.72;5052064;28;20053;-46
2024/01/11 00:52:15;;;;;;;2.15;0.73;;;;;;;2.05;75.47;101985.16;5040366;28;21031;-50
2024/01/11 00:54:44;;;;;;;1.92;0.90;;;;;;;2.08;74.77;101989.56;5041793;28;20049;-49
2024/01/11 00:57:11;;;;;;;2.80;0.80;;;;;;;2.07;74.18;101980.16;5043045;28;20057;-49
2024/01/11 00:59:40;;;;;;;7.13;0.85;;;;;;;2.07;74.71;101983.59;5046506;28;20041;-47
2024/01/11 01:02:07;;;;;;;2.45;0.95;;;;;;;2.08;74.30;101970.03;5039451;28;20099;-46
2024/01/11 01:04:37;;;;;;;3.40;1.35;;;;;;;2.09;75.69;101981.16;5049296;28;20450;-47
2024/01/11 01:07:05;;;;;;;2.80;0.93;;;;;;;2.10;74.84;101985.47;5043663;28;20064;-43
2024/01/11 01:09:34;;;;;;;1.13;0.65;;;;;;;2.13;75.01;101978.00;5048360;28;20390;-50
2024/01/11 01:12:01;;;;;;;4.25;1.55;;;;;;;2.14;74.24;101983.22;5044476;28;20045;-50
2024/01/11 01:14:28;;;;;;;0.60;0.38;;;;;;;2.13;74.54;101983.09;5038453;28;20057;-50
2024/01/11 01:16:56;;;;;;;1.80;0.80;;;;;;;2.14;75.31;101979.75;5042599;28;20136;-45
2024/01/11 01:19:23;;;;;;;4.32;1.20;;;;;;;2.16;75.57;101988.41;5040186;28;20048;-49
2024/01/11 01:21:49;;;;;;;6.60;2.20;;;;;;;2.16;74.94;101980.75;5041916;28;20115;-53
2024/01/11 01:24:16;;;;;;;2.15;1.92;;;;;;;2.16;75.49;101979.06;5042188;28;20459;-50
2024/01/11 01:26:43;;;;;;;2.03;1.45;;;;;;;2.18;74.82;101986.81;5038873;28;20053;-46
2024/01/11 01:29:09;;;;;;;7.07;1.25;;;;;;;2.17;74.90;101985.06;5031774;28;20131;-45
2024/01/11 01:31:37;;;;;;;2.83;0.82;;;;;;;2.18;74.76;101986.81;5049979;28;20148;-47
2024/01/11 01:34:04;;;;;;;2.30;1.83;;;;;;;2.18;75.41;101987.72;5047797;28;20413;-50
2024/01/11 01:36:31;;;;;;;0.90;0.75;;;;;;;2.18;75.17;101989.38;5042729;28;20099;-48
2024/01/11 01:38:58;;;;;;;5.20;1.50;;;;;;;2.20;75.15;101995.50;5046266;28;20048;-50
2024/01/11 01:41:25;;;;;;;1.95;0.57;;;;;;;2.24;75.29;101994.91;5049958;28;20045;-47
2024/01/11 01:43:52;;;;;;;3.60;2.53;;;;;;;2.21;74.91;102001.47;5043947;28;20406;-47
2024/01/11 01:46:23;;;;;;;6.95;1.02;;;;;;;2.25;74.87;102001.78;5050519;28;20041;-43
2024/01/11 01:48:52;;;;;;;3.40;1.02;;;;;;;2.28;75.34;102009.66;5043582;28;20048;-44
2024/01/11 01:51:19;;;;;;;2.00;0.85;;;;;;;2.30;74.30;102013.16;5035056;28;20053;-53
2024/01/11 01:53:46;;;;;;;6.53;0.98;;;;;;;2.32;75.10;102010.69;5043405;28;20119;-48
2024/01/11 01:56:13;;;;;;;2.25;0.90;;;;;;;2.33;74.38;102011.59;5046380;28;20064;-46
2024/01/11 01:58:41;;;;;;;2.85;1.55;;;;;;;2.33;74.26;102012.47;5044595;28;20504;-51
2024/01/11 02:01:08;;;;;;;2.58;1.00;;;;;;;2.34;75.01;102013.38;5049030;28;20061;-43
2024/01/11 02:03:37;;;;;;;4.50;0.90;;;;;;;2.34;74.71;102014.25;5048854;28;20072;-53
2024/01/11 02:06:07;;;;;;;3.58;1.00;;;;;;;2.37;74.69;102028.91;5044964;28;20584;-44
2024/01/11 02:08:34;;;;;;;3.25;1.08;;;;;;;2.34;74.61;102023.59;5047828;28;20565;-51
2024/01/11 02:11:01;;;;;;;4.30;1.10;;;;;;;2.38;74.86;102025.56;5052193;28;20512;-47
2024/01/11 02:13:28;;;;;;;1.27;0.80;;;;;;;2.36;74.62;102034.81;5044107;28;20115;-49
2024/01/11 02:15:55;;;;;;;2.50;1.35;;;;;;;2.34;74.76;102033.81;5043898;28;20053;-47
2024/01/11 02:18:22;;;;;;;4.63;1.17;;;;;;;2.42;74.97;102042.84;5042196;28;20049;-51
2024/01/11 02:20:48;;;;;;;7.57;1.95;;;;;;;2.43;74.25;102045.50;5042459;28;20055;-51
2024/01/11 02:23:21;;;;;;;1.60;0.65;;;;;;;2.44;74.60;102046.41;5037204;28;20053;-48
2024/01/11 02:25:48;;;;;;;8.57;2.38;;;;;;;2.45;74.51;102048.16;5045212;28;20404;-47
2024/01/11 02:28:14;;;;;;;2.28;0.63;;;;;;;2.48;74.32;102043.25;5046684;28;20056;-47
2024/01/11 02:30:42;;;;;;;1.33;0.57;;;;;;;2.44;74.52;102042.16;5051691;28;20115;-52
2024/01/11 02:33:10;;;;;;;2.13;1.00;;;;;;;2.45;74.22;102043.06;5049812;28;20053;-47
2024/01/11 02:35:39;;;;;;;2.85;1.20;;;;;;;2.47;74.54;102036.38;5042712;28;20053;-51
2024/01/11 02:38:10;;;;;;;3.30;1.05;;;;;;;2.47;74.16;102046.63;5045033;28;20568;-47
2024/01/11 02:40:38;;;;;;;2.50;1.48;;;;;;;2.46;75.04;102039.69;5052594;28;20055;-52
2024/01/11 02:43:10;;;;;;;1.83;1.13;;;;;;;2.48;74.79;102045.81;5046039;28;20043;-45
2024/01/11 02:45:37;;;;;;;3.45;0.75;;;;;;;2.47;75.25;102056.84;5040815;28;20128;-51
2024/01/11 02:48:04;;;;;;;4.15;1.15;;;;;;;2.49;74.96;102050.13;5043574;28;20041;-48
2024/01/11 02:50:30;;;;;;;2.45;0.57;;;;;;;2.49;75.07;102057.81;5047925;28;20053;-43
2024/01/11 02:52:57;;;;;;;1.73;0.63;;;;;;;2.52;74.54;102060.56;5037202;28;20148;-45
2024/01/11 02:55:24;;;;;;;3.55;1.15;;;;;;;2.53;74.16;102057.22;5049162;28;20517;-48
2024/01/11 02:57:50;;;;;;;2.28;1.20;;;;;;;2.55;74.34;102058.22;5045066;28;20130;-43
2024/01/11 03:00:19;;;;;;;4.13;1.83;;;;;;;2.54;74.87;102058.97;5042851;28;20052;-52
2024/01/11 03:02:47;;;;;;;4.07;1.00;;;;;;;2.59;74.43;102066.03;5044936;28;20052;-48
2024/01/11 03:05:14;;;;;;;3.13;0.80;;;;;;;2.55;75.14;102065.88;5043966;28;20049;-46
2024/01/11 03:07:41;;;;;;;1.90;0.80;;;;;;;2.59;74.52;102071.16;5042050;28;20048;-52
2024/01/11 03:10:07;;;;;;;3.45;0.40;;;;;;;2.57;74.82;102074.53;5040370;28;20075;-47
2024/01/11 03:12:35;;;;;;;1.73;0.50;;;;;;;2.57;75.23;102063.44;5037719;28;20045;-51
2024/01/11 03:15:02;;;;;;;1.05;0.60;;;;;;;2.60;74.01;102075.53;5040439;28;20139;-50
2024/01/11 03:17:28;;;;;;;5.22;1.00;;;;;;;2.60;74.79;102072.97;5038735;28;20047;-46
2024/01/11 03:19:55;;;;;;;3.58;1.45;;;;;;;2.60;74.29;102071.25;5033046;28;20056;-51
2024/01/11 03:22:22;;;;;;;5.43;0.90;;;;;;;2.62;74.92;102073.91;5036619;28;20124;-50
2024/01/11 03:24:50;;;;;;;4.53;1.10;;;;;;;2.63;75.04;102068.03;5038544;28;20045;-47
2024/01/11 03:27:18;;;;;;;0.70;0.52;;;;;;;2.57;74.46;102074.53;5040158;28;20049;-48
2024/01/11 03:29:45;;;;;;;1.92;1.13;;;;;;;2.57;74.14;102069.41;5045158;28;20056;-49
2024/01/11 03:32:13;;;;;;;1.15;1.05;;;;;;;2.56;73.96;102070.19;5042840;28;20084;-44
2024/01/11 03:34:40;;;;;;;2.70;1.08;;;;;;;2.59;74.27;102071.16;5042682;28;20571;-46
2024/01/11 03:37:07;;;;;;;3.38;1.45;;;;;;;2.60;74.14;102061.03;5051667;28;20052;-47
2024/01/11 03:39:34;;;;;;;4.47;1.55;;;;;;;2.55;74.82;102076.13;5046115;28;20049;-47
2024/01/11 03:42:03;;;;;;;2.33;1.48;;;;;;;2.59;75.13;102073.72;5040931;28;20573;-47
2024/01/11 03:44:33;;;;;;;0.98;0.93;;;;;;;2.55;74.57;102078.66;5036866;28;20049;-45
2024/01/11 03:46:59;;;;;;;5.78;0.68;;;;;;;2.56;75.07;102071.88;5044035;28;20157;-52
2024/01/11 03:49:27;;;;;;;1.60;0.43;;;;;;;2.56;74.70;102082.09;5048619;28;20056;-48
2024/01/11 03:51:54;;;;;;;1.10;0.75;;;;;;;2.59;73.72;102078.84;5040685;28;20132;-48
2024/01/11 03:54:20;;;;;;;2.20;0.88;;;;;;;2.57;74.14;102089.00;5045312;28;20056;-46
2024/01/11 03:56:48;;;;;;;1.08;0.50;;;;;;;2.60;74.38;102090.88;5043916;28;20052;-48
2024/01/11 03:59:14;;;;;;;2.45;0.80;;;;;;;2.60;74.24;102088.31;5048003;28;20053;-49
2024/01/11 04:01:42;;;;;;;1.40;1.05;;;;;;;2.60;74.59;102086.63;5041761;28;20096;-49
2024/01/11 04:04:10;;;;;;;1.70;1.13;;;;;;;2.61;74.50;102102.88;5036435;28;20057;-51
2024/01/11 04:06:38;;;;;;;2.75;2.20;;;;;;;2.56;74.40;102093.22;5042169;28;20055;-42
2024/01/11 04:09:06;;;;;;;2.00;0.98;;;;;;;2.61;74.83;102095.19;5045491;28;20081;-49
2024/01/11 04:11:33;;;;;;;1.48;1.15;;;;;;;2.64;74.29;102100.50;5045378;28;20131;-49
2024/01/11 04:14:00;;;;;;;3.13;0.65;;;;;;;2.65;74.18;102102.25;5047586;28;20057;-46
2024/01/11 04:16:27;;;;;;;1.95;1.02;;;;;;;2.63;73.55;102103.84;5050458;28;20135;-49
2024/01/11 04:18:55;;;;;;;4.38;0.50;;;;;;;2.63;74.45;102104.72;5052757;28;20067;-53
2024/01/11 04:21:24;;;;;;;1.60;0.93;;;;;;;2.63;74.41;102103.84;5044846;28;20068;-47
2024/01/11 04:23:50;;;;;;;2.40;0.77;;;;;;;2.68;73.61;102117.81;5044892;28;20049;-44
2024/01/11 04:26:19;;;;;;;2.33;0.50;;;;;;;2.65;74.32;102109.94;5037217;28;20045;-54
2024/01/11 04:28:46;;;;;;;1.75;1.10;;;;;;;2.69;73.55;102114.47;5041789;28;20704;-46
2024/01/11 04:31:14;;;;;;;6.50;0.55;;;;;;;2.71;74.36;102123.13;5040392;28;20049;-47
2024/01/11 04:33:41;;;;;;;4.78;0.85;;;;;;;2.72;73.77;102117.22;5043349;28;20100;-46
2024/01/11 04:36:09;;;;;;;1.40;0.50;;;;;;;2.72;73.72;102124.91;5047299;28;20057;-47
2024/01/11 04:38:36;;;;;;;0.85;0.47;;;;;;;2.73;73.50;102121.53;5051024;28;20068;-48
2024/01/11 04:41:09;;;;;;;3.03;0.70;;;;;;;2.73;73.52;102125.78;5049008;28;20057;-48
2024/01/11 04:43:40;;;;;;;1.27;0.45;;;;;;;2.70;74.36;102129.91;5043625;28;20160;-50
2024/01/11 04:46:26;;;;;;;0.60;0.43;;;;;;;2.73;73.90;102128.34;5056888;28;20048;-49
2024/01/11 04:48:53;;;;;;;1.23;0.40;;;;;;;2.74;74.12;102131.00;5037856;28;20047;-46
2024/01/11 04:51:20;;;;;;;4.15;0.70;;;;;;;2.73;73.30;102130.91;5043635;28;20520;-52
2024/01/11 04:53:47;;;;;;;3.08;1.08;;;;;;;2.73;73.50;102136.91;5048762;28;20834;-50
2024/01/11 04:56:15;;;;;;;3.70;1.17;;;;;;;2.75;74.01;102130.22;5043810;28;20041;-46
2024/01/11 04:58:44;;;;;;;3.10;0.68;;;;;;;2.77;73.07;102136.31;5047327;28;20040;-51
2024/01/11 05:01:13;;;;;;;2.97;0.77;;;;;;;2.73;73.47;102136.91;5042142;28;20056;-51
2024/01/11 05:03:41;;;;;;;0.85;0.50;;;;;;;2.73;73.99;102142.00;5042544;28;20049;-53
2024/01/11 05:06:14;;;;;;;1.80;0.68;;;;;;;2.73;73.59;102142.00;5047680;28;20058;-48
2024/01/11 05:08:41;;;;;;;4.32;0.60;;;;;;;2.78;73.25;102143.22;5044404;28;20065;-46
2024/01/11 05:11:08;;;;;;;4.22;0.43;;;;;;;2.78;73.45;102150.00;5043774;28;20058;-47
2024/01/11 05:13:34;;;;;;;2.30;1.25;;;;;;;2.82;73.79;102157.06;5044598;28;20072;-45
2024/01/11 05:16:01;;;;;;;0.77;0.32;;;;;;;2.81;73.36;102156.19;5046833;28;20062;-52
2024/01/11 05:18:29;;;;;;;2.15;0.50;;;;;;;2.82;73.90;102163.09;5040739;28;20048;-48
2024/01/11 05:21:00;;;;;;;2.45;0.50;;;;;;;2.79;73.45;102157.78;5045275;28;20053;-48
2024/01/11 05:23:27;;;;;;;2.33;0.50;;;;;;;2.79;73.90;102155.22;5040529;28;20063;-47
2024/01/11 05:25:54;;;;;;;1.13;0.40;;;;;;;2.82;73.35;102160.53;5043022;28;20092;-48
2024/01/11 05:28:20;;;;;;;3.25;1.00;;;;;;;2.82;73.66;102168.22;5040550;28;20048;-46
2024/01/11 05:30:47;;;;;;;1.00;0.70;;;;;;;2.81;73.90;102171.53;5041970;28;20052;-48
2024/01/11 05:33:14;;;;;;;2.20;0.55;;;;;;;2.85;73.72;102171.72;5041027;28;20044;-53
2024/01/11 05:35:41;;;;;;;0.52;0.50;;;;;;;2.85;73.76;102167.50;5044056;28;20045;-49
2024/01/11 05:38:07;;;;;;;3.35;0.50;;;;;;;2.82;73.13;102178.44;5040732;28;20057;-47
2024/01/11 05:40:34;;;;;;;2.70;0.50;;;;;;;2.81;72.85;102171.53;5042829;28;20056;-53
2024/01/11 05:43:01;;;;;;;1.67;1.48;;;;;;;2.87;73.59;102176.16;5041862;28;20053;-44
2024/01/11 05:45:28;;;;;;;1.42;0.85;;;;;;;2.83;73.57;102180.22;5044344;28;20056;-48
2024/01/11 05:48:11;;;;;;;4.88;0.65;;;;;;;2.83;73.27;102180.22;5041906;28;20067;-45
2024/01/11 05:50:39;;;;;;;0.77;0.47;;;;;;;2.82;72.93;102187.78;5043170;28;20045;-46
2024/01/11 05:53:06;;;;;;;0.52;0.45;;;;;;;2.80;73.62;102190.25;5041409;28;20540;-49
2024/01/11 05:55:33;;;;;;;3.38;0.38;;;;;;;2.86;73.06;102204.22;5041269;28;20048;-45
2024/01/11 05:58:00;;;;;;;1.45;0.95;;;;;;;2.88;73.08;102205.22;5037571;28;20067;-46
2024/01/11 06:00:27;;;;;;;1.20;0.65;;;;;;;2.89;73.61;102205.31;5038735;28;20044;-46
2024/01/11 06:02:54;;;;;;;2.45;1.02;;;;;;;2.90;73.41;102207.06;5048541;28;20045;-46
2024/01/11 06:05:20;;;;;;;1.23;0.60;;;;;;;2.91;72.91;102207.97;5042866;28;20056;-51
2024/01/11 06:07:47;;;;;;;1.30;0.65;;;;;;;2.91;73.32;102213.09;5027376;28;20048;-49
2024/01/11 06:10:14;;;;;;;1.08;0.50;;;;;;;2.90;72.82;102211.34;5042055;28;20056;-53
2024/01/11 06:12:41;;;;;;;2.38;0.40;;;;;;;2.94;72.91;102215.84;5042984;28;20045;-52
2024/01/11 06:15:09;;;;;;;3.10;0.82;;;;;;;2.92;73.64;102209.75;5041226;28;20053;-50
2024/01/11 06:17:36;;;;;;;2.85;0.63;;;;;;;2.94;72.84;102218.41;5048163;28;20044;-50
2024/01/11 06:20:03;;;;;;;1.30;0.80;;;;;;;2.93;73.59;102222.63;5046361;28;20144;-50
2024/01/11 06:22:30;;;;;;;1.67;1.58;;;;;;;2.94;73.72;102218.41;5042562;28;20416;-48
2024/01/11 06:24:59;;;;;;;2.70;0.47;;;;;;;2.92;73.50;102225.09;5043401;28;20077;-50
2024/01/11 06:27:27;;;;;;;0.75;0.43;;;;;;;2.93;72.84;102221.75;5037586;28;20068;-50
2024/01/11 06:29:54;;;;;;;3.83;0.68;;;;;;;2.95;73.54;102225.31;5042656;28;20713;-43
2024/01/11 06:32:21;;;;;;;3.45;0.60;;;;;;;2.96;73.40;102221.94;5046422;28;20071;-53
2024/01/11 06:34:48;;;;;;;1.20;1.10;;;;;;;2.92;73.40;102223.44;5058940;28;20053;-47
2024/01/11 06:37:15;;;;;;;3.38;0.80;;;;;;;2.98;73.72;102224.59;5050946;28;20045;-49
2024/01/11 06:39:43;;;;;;;1.17;0.45;;;;;;;2.95;73.12;102230.41;5044219;28;20558;-52
2024/01/11 06:42:11;;;;;;;3.10;1.65;;;;;;;2.94;73.21;102221.84;5048190;28;20367;-49
2024/01/11 06:44:39;;;;;;;0.95;0.38;;;;;;;2.97;73.67;102223.69;5050678;28;20128;-49
2024/01/11 06:47:06;;;;;;;0.70;0.40;;;;;;;2.95;73.90;102227.84;5044081;28;20559;-50
2024/01/11 06:49:33;;;;;;;1.60;0.68;;;;;;;2.95;73.60;102235.53;5047407;28;20838;-45
2024/01/11 06:52:00;;;;;;;1.80;0.47;;;;;;;2.97;73.62;102233.94;5050911;28;20130;-50
2024/01/11 06:54:27;;;;;;;5.40;0.68;;;;;;;2.96;73.20;102237.31;5047709;28;20055;-50
2024/01/11 06:56:53;;;;;;;2.05;0.82;;;;;;;2.95;73.42;102236.41;5050826;28;20056;-45
2024/01/11 06:59:20;;;;;;;2.58;0.68;;;;;;;2.97;73.81;102239.06;5048163;28;20064;-48
2024/01/11 07:01:50;;;;;;;1.55;1.13;;;;;;;2.95;73.36;102245.78;5047750;28;20056;-46
2024/01/11 07:04:16;;;;;;;3.45;0.65;;;;;;;2.98;73.33;102243.41;5047242;28;20045;-48
2024/01/11 07:06:45;;;;;;;1.10;1.00;;;;;;;2.97;73.68;102246.75;5041478;28;20071;-48
2024/01/11 07:09:12;;;;;;;1.17;0.55;;;;;;;2.97;73.70;102243.31;5045861;28;20063;-45
2024/01/11 07:11:38;;;;;;;2.70;0.82;;;;;;;2.96;73.70;102247.53;5046452;28;20048;-48
2024/01/11 07:14:05;;;;;;;2.22;1.40;;;;;;;2.97;73.27;102248.44;5041971;28;20051;-46
2024/01/11 07:16:32;;;;;;;1.38;0.93;;;;;;;2.95;73.96;102251.75;5044753;28;20416;-47
2024/01/11 07:18:59;;;;;;;0.40;0.30;;;;;;;2.95;73.86;102259.44;5038860;28;20485;-50
2024/01/11 07:21:29;;;;;;;0.95;0.38;;;;;;;2.95;73.12;102256.03;5039495;28;20057;-47
2024/01/11 07:23:57;;;;;;;1.17;1.05;;;;;;;2.97;73.19;102256.13;5040219;28;20604;-51
2024/01/11 07:26:26;;;;;;;1.08;0.93;;;;;;;2.98;73.89;102266.47;5044227;28;20068;-49
2024/01/11 07:28:54;;;;;;;2.85;0.52;;;;;;;2.98;73.51;102261.34;5039933;28;20129;-51
2024/01/11 07:31:23;;;;;;;3.55;0.38;;;;;;;2.97;74.03;102257.00;5033502;28;20057;-44
2024/01/11 07:33:50;;;;;;;2.42;0.60;;;;;;;2.96;73.76;102268.03;5041095;28;20041;-53
2024/01/11 07:36:17;;;;;;;0.50;0.30;;;;;;;2.97;73.97;102263.81;5045866;28;20045;-49
2024/01/11 07:38:46;;;;;;;3.03;2.30;;;;;;;2.98;73.08;102260.44;5050443;28;20053;-52
2024/01/11 07:41:14;;;;;;;5.47;0.90;;;;;;;2.98;73.71;102269.03;5044158;28;20049;-49
2024/01/11 07:43:41;;;;;;;0.65;0.40;;;;;;;2.97;73.36;102272.34;5045194;28;20143;-50
2024/01/11 07:46:20;;;;;;;4.80;1.10;;;;;;;2.95;73.70;102277.38;5048792;28;20053;-46
2024/01/11 07:49:01;;;;;;;1.13;0.30;;;;;;;2.89;73.85;102277.00;5039000;28;20053;-48
2024/01/11 07:51:28;;;;;;;1.73;1.35;;;;;;;2.94;73.61;102290.09;5040337;28;20059;-47
2024/01/11 07:53:55;;;;;;;0.43;0.20;;;;;;;2.94;73.78;102295.22;5042187;28;20049;-48
2024/01/11 07:56:23;;;;;;;4.05;1.10;;;;;;;2.96;73.25;102293.63;5039205;28;20053;-44
2024/01/11 07:58:50;;;;;;;1.02;0.93;;;;;;;2.98;73.63;102307.44;5041061;28;20121;-42
2024/01/11 08:01:16;;;;;;;1.67;0.40;;;;;;;2.97;73.73;102308.19;5039490;28;20053;-45
2024/01/11 08:03:45;;;;;;;0.82;0.50;;;;;;;2.89;73.06;102306.81;5045042;28;20075;-47
2024/01/11 08:06:12;;;;;;;1.20;0.40;;;;;;;2.94;73.62;102310.56;5036702;28;20052;-52
2024/01/11 08:08:41;;;;;;;0.80;0.40;;;;;;;2.96;72.96;102314.09;5038609;28;20747;-49
2024/01/11 08:11:08;;;;;;;0.73;0.40;;;;;;;2.94;73.76;102318.25;5034565;28;20049;-47
2024/01/11 08:13:37;;;;;;;0.93;0.65;;;;;;;2.95;73.14;102317.47;5041626;28;20674;-48
2024/01/11 08:16:07;;;;;;;1.10;0.95;;;;;;;2.94;73.52;102326.81;5027986;28;20060;-55
2024/01/11 08:18:34;;;;;;;1.15;0.20;;;;;;;2.95;73.29;102327.69;5039900;28;20055;-53
2024/01/11 08:21:01;;;;;;;0.85;0.77;;;;;;;2.94;73.48;102333.63;5036442;28;20053;-50
2024/01/11 08:23:27;;;;;;;0.60;0.40;;;;;;;2.95;73.55;102332.81;5046763;28;20135;-48
2024/01/11 08:25:54;;;;;;;0.40;0.28;;;;;;;2.98;73.06;102335.59;5037702;28;20524;-50
2024/01/11 08:28:21;;;;;;;1.95;0.47;;;;;;;2.97;72.74;102336.34;5040447;28;20053;-45
2024/01/11 08:30:49;;;;;;;0.45;0.45;;;;;;;3.00;73.21;102339.13;5038980;28;20061;-45
2024/01/11 08:33:15;;;;;;;0.85;0.40;;;;;;;3.01;73.09;102338.31;5035857;28;20072;-42
2024/01/11 08:35:44;;;;;;;1.52;1.10;;;;;;;3.00;73.22;102344.25;5041396;28;20067;-44
2024/01/11 08:38:11;;;;;;;2.17;0.98;;;;;;;3.02;73.28;102345.25;5041358;28;20114;-43
2024/01/11 08:40:39;;;;;;;2.85;0.70;;;;;;;3.05;73.16;102355.69;5040141;28;20064;-51
2024/01/11 08:43:06;;;;;;;1.33;0.95;;;;;;;3.06;73.30;102362.59;5049831;28;20057;-52
2024/01/11 08:45:33;;;;;;;1.27;0.30;;;;;;;3.08;73.27;102361.00;5050194;28;20090;-47
2024/01/11 08:48:00;;;;;;;1.85;0.38;;;;;;;3.10;73.63;102362.78;5054524;28;20114;-53
2024/01/11 08:50:27;;;;;;;1.23;0.73;;;;;;;3.12;73.36;102364.66;5048753;28;20896;-45
2024/01/11 08:52:55;;;;;;;0.65;0.30;;;;;;;3.14;73.36;102357.06;5050959;28;20053;-42
2024/01/11 08:55:22;;;;;;;1.15;0.35;;;;;;;3.16;72.90;102352.94;5050698;28;20124;-47
2024/01/11 08:57:49;;;;;;;0.60;0.50;;;;;;;3.17;73.25;102354.69;5050455;28;20049;-54
2024/01/11 09:00:17;;;;;;;1.02;0.65;;;;;;;3.19;73.05;102358.25;5054753;28;20063;-49
2024/01/11 09:02:46;;;;;;;0.85;0.80;;;;;;;3.22;72.92;102359.31;5048868;28;20095;-46
2024/01/11 09:05:14;;;;;;;1.77;1.02;;;;;;;3.23;73.41;102357.66;5046674;28;20069;-47
2024/01/11 09:07:42;;;;;;;0.77;0.70;;;;;;;3.26;73.26;102364.66;5049835;28;20136;-46
2024/01/11 09:10:09;;;;;;;1.77;0.50;;;;;;;3.29;73.33;102362.28;5055828;28;20132;-44
2024/01/11 09:12:36;;;;;;;2.67;0.43;;;;;;;3.28;72.69;102363.97;5048647;28;20044;-49
2024/01/11 09:15:03;;;;;;;2.13;1.17;;;;;;;3.29;73.11;102360.63;5050682;28;20045;-52
2024/01/11 09:17:32;;;;;;;0.65;0.50;;;;;;;3.29;73.19;102375.09;5054113;28;20505;-50
2024/01/11 09:19:59;;;;;;;1.55;1.42;;;;;;;3.30;72.89;102377.75;5047506;28;20083;-54
2024/01/11 09:22:27;;;;;;;1.00;0.45;;;;;;;3.37;73.21;102373.91;5043852;28;20131;-45
2024/01/11 09:24:54;;;;;;;1.58;0.55;;;;;;;3.38;72.95;102375.69;5052989;28;20037;-48
2024/01/11 09:27:22;;;;;;;1.25;1.00;;;;;;;3.37;72.78;102378.19;5043596;28;20053;-45
2024/01/11 09:29:49;;;;;;;5.10;0.77;;;;;;;3.39;72.88;102379.16;5050211;28;20052;-50
2024/01/11 09:32:21;;;;;;;0.80;0.47;;;;;;;3.40;73.09;102378.34;5054234;28;20515;-55
2024/01/11 09:34:48;;;;;;;0.85;0.50;;;;;;;3.43;73.28;102374.31;5047372;28;20040;-45
2024/01/11 09:37:14;;;;;;;1.27;0.93;;;;;;;3.46;72.79;102383.88;5050920;28;20041;-47
2024/01/11 09:39:42;;;;;;;0.85;0.75;;;;;;;3.48;72.91;102384.88;5044023;28;20044;-56
2024/01/11 09:42:09;;;;;;;1.00;0.60;;;;;;;3.53;73.02;102385.16;5047725;28;20080;-54
2024/01/11 09:44:39;;;;;;;1.65;0.90;;;;;;;3.55;73.04;102386.16;5053100;28;20106;-48
2024/01/11 09:47:09;;;;;;;1.60;0.55;;;;;;;3.59;72.63;102390.69;5051679;28;20040;-49
2024/01/11 09:49:43;;;;;;;6.13;1.20;;;;;;;3.62;72.73;102400.25;5044544;28;20044;-46
2024/01/11 09:52:12;;;;;;;2.50;0.73;;;;;;;3.65;72.65;102400.44;5048669;28;20052;-53
2024/01/11 09:54:40;;;;;;;1.50;0.77;;;;;;;3.66;73.25;102402.22;5048731;28;20505;-48
2024/01/11 09:57:09;;;;;;;1.52;1.05;;;;;;;3.70;73.00;102399.03;5048033;28;20755;-49
2024/01/11 09:59:36;;;;;;;3.45;0.93;;;;;;;3.74;73.23;102406.13;5048187;28;20048;-50
2024/01/11 10:02:08;;;;;;;2.72;2.53;;;;;;;3.77;73.04;102406.34;5041645;28;20410;-50
2024/01/11 10:04:35;;;;;;;3.90;1.20;;;;;;;3.79;72.74;102409.91;5050252;28;20045;-50
2024/01/11 10:07:06;;;;;;;1.70;0.80;;;;;;;3.82;73.01;102415.19;5047874;28;20167;-53
2024/01/11 10:09:33;;;;;;;1.52;1.10;;;;;;;3.86;73.40;102421.41;5046544;28;20049;-45
2024/01/11 10:11:59;;;;;;;1.52;1.10;;;;;;;3.90;72.85;102422.50;5042164;28;20049;-44
2024/01/11 10:14:27;;;;;;;4.20;0.70;;;;;;;3.90;73.04;102423.38;5052078;28;20095;-45
2024/01/11 10:16:55;;;;;;;5.28;1.60;;;;;;;3.94;72.95;102417.66;5047868;28;20512;-49
2024/01/11 10:19:21;;;;;;;1.80;0.88;;;;;;;3.98;72.99;102427.31;5047463;28;20049;-39
2024/01/11 10:21:49;;;;;;;1.30;1.15;;;;;;;4.00;72.85;102429.97;5039313;28;20128;-45
2024/01/11 10:24:20;;;;;;;6.18;0.85;;;;;;;4.05;73.09;102428.59;5052846;28;20044;-47
2024/01/11 10:26:47;;;;;;;0.63;0.55;;;;;;;4.06;72.56;102432.03;5043877;28;20045;-47
2024/01/11 10:29:14;;;;;;;0.73;0.57;;;;;;;4.10;72.67;102424.66;5051241;28;20072;-47
2024/01/11 10:31:41;;;;;;;0.98;0.88;;;;;;;4.14;72.81;102427.38;5046250;28;20805;-51
2024/01/11 10:34:08;;;;;;;1.85;0.95;;;;;;;4.17;73.17;102432.69;5051758;28;20052;-49
2024/01/11 10:36:36;;;;;;;0.85;0.85;;;;;;;4.20;72.38;102430.34;5052658;28;20052;-54
2024/01/11 10:39:05;;;;;;;1.33;1.23;;;;;;;4.19;72.19;102431.13;5047502;28;20413;-52
2024/01/11 10:41:39;;;;;;;2.60;0.93;;;;;;;4.23;72.56;102433.09;5045956;28;20512;-46
2024/01/11 10:44:16;;;;;;;5.10;1.80;;;;;;;4.28;72.91;102431.69;5039594;28;20405;-46
2024/01/11 10:46:46;;;;;;;1.10;0.85;;;;;;;4.23;72.56;102435.66;5049796;28;20072;-46
2024/01/11 10:49:18;;;;;;;1.25;1.08;;;;;;;4.28;71.88;102443.63;5047023;28;20048;-48
2024/01/11 10:51:53;;;;;;;1.33;0.77;;;;;;;4.30;71.98;102439.50;5037876;28;20048;-53
2024/01/11 10:54:21;;;;;;;3.45;0.95;;;;;;;4.32;71.87;102433.66;5049775;28;20041;-49
2024/01/11 10:56:48;;;;;;;0.93;0.52;;;;;;;4.35;72.60;102438.09;5045749;28;20049;-47
2024/01/11 10:59:18;;;;;;;0.55;0.38;;;;;;;4.36;72.59;102435.63;5045308;28;20146;-48
2024/01/11 11:01:45;;;;;;;2.33;0.80;;;;;;;4.37;72.18;102442.53;5049217;28;20046;-44
2024/01/11 11:04:14;;;;;;;1.10;0.43;;;;;;;4.41;72.17;102442.72;5045848;28;20049;-53
2024/01/11 11:06:42;;;;;;;2.35;1.02;;;;;;;4.44;72.39;102438.66;5045963;28;20485;-49
2024/01/11 11:09:11;;;;;;;2.35;0.55;;;;;;;4.45;72.63;102444.66;5046621;28;20077;-52
2024/01/11 11:11:39;;;;;;;1.80;1.13;;;;;;;4.49;72.48;102431.22;5047052;28;20049;-47
2024/01/11 11:14:07;;;;;;;2.53;0.82;;;;;;;4.53;72.43;102442.59;5041867;28;20048;-55
2024/01/11 11:16:34;;;;;;;0.95;0.75;;;;;;;4.59;72.55;102443.84;5046767;28;20118;-47
2024/01/11 11:19:01;;;;;;;2.45;0.95;;;;;;;4.62;72.41;102449.16;5046483;28;20040;-45
2024/01/11 11:21:27;;;;;;;2.22;1.13;;;;;;;4.65;71.68;102438.19;5052652;28;20060;-53
2024/01/11 11:23:56;;;;;;;2.03;0.70;;;;;;;4.66;71.84;102439.09;5042943;28;20053;-56
2024/01/11 11:26:27;;;;;;;1.13;1.02;;;;;;;4.72;71.50;102444.56;5048901;28;20053;-55
2024/01/11 11:28:54;;;;;;;1.30;0.95;;;;;;;4.76;71.69;102446.53;5038383;28;20050;-51
2024/01/11 11:31:42;;;;;;;1.67;1.00;;;;;;;4.80;72.29;102451.03;5043027;28;20452;-52
2024/01/11 11:34:13;;;;;;;3.28;1.05;;;;;;;4.84;72.07;102450.47;5045901;28;20049;-64
2024/01/11 11:36:42;;;;;;;;;;;;;;;4.83;72.44;102448.66;5052413;28;20130;-59